createdAt,value
2022-10-28T00:00:51.127Z,19.12000084
2022-10-28T00:01:50.507Z,19.12000084
2022-10-28T00:02:46.208Z,19.12000084
2022-10-28T00:03:46.911Z,19.12000084
2022-10-28T00:04:41.984Z,19.12999916
2022-10-28T00:06:27.981Z,19.18000031
2022-10-28T00:07:07.051Z,19.23999977
2022-10-28T00:08:11.110Z,19.29999924
2022-10-28T00:09:12.282Z,19.29000092
2022-10-28T00:10:08.670Z,19.28000069
2022-10-28T00:11:08.856Z,19.28000069
2022-10-28T00:12:03.165Z,19.26000023
2022-10-28T00:13:02.988Z,19.22999954
2022-10-28T00:13:57.778Z,19.21999931
2022-10-28T00:14:58.996Z,19.21999931
2022-10-28T00:15:55.485Z,19.20000076
2022-10-28T00:16:55.655Z,19.19000053
2022-10-28T00:17:50.148Z,19.18000031
2022-10-28T00:18:54.002Z,19.20000076
2022-10-28T00:19:49.662Z,19.22999954
2022-10-28T00:20:51.847Z,19.23999977
2022-10-28T00:21:57.581Z,19.25
2022-10-28T00:23:01.926Z,19.21999931
2022-10-28T00:23:56.308Z,19.20000076
2022-10-28T00:25:00.093Z,19.18000031
2022-10-28T00:25:54.651Z,19.17000008
2022-10-28T00:26:54.315Z,19.15999985
2022-10-28T00:27:49.211Z,19.13999939
2022-10-28T00:28:49.268Z,19.13999939
2022-10-28T00:29:44.482Z,19.13999939
2022-10-28T00:30:48.119Z,19.12999916
2022-10-28T00:31:45.159Z,19.12000084
2022-10-28T00:32:48.829Z,19.11000061
2022-10-28T00:33:41.343Z,19.11000061
2022-10-28T00:34:41.027Z,19.11000061
2022-10-28T00:35:39.317Z,19.11000061
2022-10-28T00:36:40.149Z,19.10000038
2022-10-28T00:37:35.453Z,19.09000015
2022-10-28T00:38:36.889Z,19.09000015
2022-10-28T00:39:29.498Z,19.09000015
2022-10-28T00:40:29.527Z,19.11000061
2022-10-28T00:41:31.342Z,19.10000038
2022-10-28T00:42:29.015Z,19.07999992
2022-10-28T00:43:31.216Z,19.06999969
2022-10-28T00:44:25.690Z,19.06999969
2022-10-28T00:47:05.995Z,19.09000015
2022-10-28T00:47:37.664Z,19.15999985
2022-10-28T00:48:35.738Z,19.21999931
2022-10-28T00:49:40.948Z,19.23999977
2022-10-28T00:50:39.935Z,19.23999977
2022-10-28T00:51:35.574Z,19.21999931
2022-10-28T00:52:38.251Z,19.20000076
2022-10-28T00:53:33.883Z,19.18000031
2022-10-28T00:54:36.309Z,19.15999985
2022-10-28T00:55:31.419Z,19.15999985
2022-10-28T00:56:31.027Z,19.13999939
2022-10-28T00:57:27.662Z,19.12999916
2022-10-28T00:58:29.700Z,19.12999916
2022-10-28T00:59:29.820Z,19.12000084
2022-10-28T01:00:30.427Z,19.11000061
2022-10-28T01:01:32.457Z,19.09000015
2022-10-28T01:02:35.442Z,19.09000015
2022-10-28T01:03:29.708Z,19.10000038
2022-10-28T01:04:30.378Z,19.12000084
2022-10-28T01:05:29.481Z,19.13999939
2022-10-28T01:06:34.347Z,19.13999939
2022-10-28T01:07:30.940Z,19.17000008
2022-10-28T01:08:32.258Z,19.19000053
2022-10-28T01:09:28.073Z,19.18000031
2022-10-28T01:16:16.126Z,20.64999962
2022-10-28T01:19:33.541Z,20.88999939
2022-10-28T01:21:20.043Z,20.76000023
2022-10-28T01:22:19.830Z,20.62000084
2022-10-28T01:23:16.379Z,20.47999954
2022-10-28T01:24:17.757Z,20.34000015
2022-10-28T01:25:11.921Z,20.20999908
2022-10-28T01:26:12.917Z,20.12000084
2022-10-28T01:27:13.028Z,20.02000046
2022-10-28T01:28:13.823Z,19.93000031
2022-10-28T01:29:07.958Z,19.88999939
2022-10-28T01:31:05.921Z,19.77000046
2022-10-28T01:32:05.603Z,19.73999977
2022-10-28T01:32:59.957Z,19.73999977
2022-10-28T01:33:55.934Z,19.69000053
2022-10-28T01:34:58.243Z,19.65999985
2022-10-28T01:36:46.545Z,19.65999985
2022-10-28T01:37:52.712Z,19.65999985
2022-10-28T01:38:46.889Z,19.65999985
2022-10-28T01:39:48.533Z,19.63999939
2022-10-28T01:40:42.771Z,19.64999962
2022-10-28T01:41:48.143Z,19.64999962
2022-10-28T01:42:38.587Z,19.65999985
2022-10-28T01:43:36.495Z,19.64999962
2022-10-28T01:44:33.952Z,19.65999985
2022-10-28T01:45:35.565Z,19.65999985
2022-10-28T01:46:29.935Z,19.64999962
2022-10-28T01:47:27.462Z,19.65999985
2022-10-28T01:48:21.804Z,19.64999962
2022-10-28T01:49:19.287Z,19.67000008
2022-10-28T01:51:07.355Z,19.67000008
2022-10-28T01:52:05.597Z,19.67000008
2022-10-28T01:52:59.894Z,19.65999985
2022-10-28T01:54:00.349Z,19.65999985
2022-10-28T01:54:54.811Z,19.65999985
2022-10-28T01:55:54.162Z,19.67000008
2022-10-28T01:56:46.694Z,19.64999962
2022-10-28T01:57:42.564Z,19.64999962
2022-10-28T01:58:42.600Z,19.63999939
2022-10-28T02:00:27.578Z,19.70000076
2022-10-28T02:01:08.494Z,19.76000023
2022-10-28T02:02:09.703Z,19.79000092
2022-10-28T02:03:07.209Z,19.79000092
2022-10-28T02:04:06.259Z,19.76000023
2022-10-28T02:05:00.816Z,19.73999977
2022-10-28T02:06:00.317Z,19.70999908
2022-10-28T02:06:59.934Z,19.67000008
2022-10-28T02:07:54.275Z,19.63999939
2022-10-28T02:08:55.739Z,19.62000084
2022-10-28T02:09:50.287Z,19.61000061
2022-10-28T02:11:48.507Z,19.60000038
2022-10-28T02:12:51.546Z,19.59000015
2022-10-28T02:13:43.323Z,19.60000038
2022-10-28T02:14:42.381Z,19.60000038
2022-10-28T02:15:37.421Z,19.61000061
2022-10-28T02:16:42.119Z,19.59000015
2022-10-28T02:17:39.484Z,19.59000015
2022-10-28T02:18:38.824Z,19.57999992
2022-10-28T02:19:39.306Z,19.56999969
2022-10-28T02:20:34.645Z,19.57999992
2022-10-28T02:21:36.585Z,19.54000092
2022-10-28T02:22:28.759Z,19.54999924
2022-10-28T02:23:31.728Z,19.55999947
2022-10-28T02:24:31.226Z,19.56999969
2022-10-28T02:25:30.466Z,19.57999992
2022-10-28T02:26:27.618Z,19.59000015
2022-10-28T02:27:29.166Z,19.57999992
2022-10-28T02:28:24.439Z,19.57999992
2022-10-28T02:29:30.116Z,19.56999969
2022-10-28T02:30:23.506Z,19.57999992
2022-10-28T02:31:23.981Z,19.57999992
2022-10-28T02:32:18.661Z,19.56999969
2022-10-28T02:33:22.721Z,19.55999947
2022-10-28T02:34:17.370Z,19.54999924
2022-10-28T02:36:43.564Z,19.53000069
2022-10-28T02:37:22.366Z,19.55999947
2022-10-28T02:38:21.543Z,19.60000038
2022-10-28T02:39:22.411Z,19.62000084
2022-10-28T02:40:17.833Z,19.59000015
2022-10-28T02:41:18.684Z,19.57999992
2022-10-28T02:42:15.138Z,19.56999969
2022-10-28T02:43:15.798Z,19.56999969
2022-10-28T02:44:17.665Z,19.52000046
2022-10-28T02:45:17.787Z,19.53000069
2022-10-28T02:46:19.901Z,19.52000046
2022-10-28T02:47:17.244Z,19.5
2022-10-28T02:48:18.278Z,19.51000023
2022-10-28T02:49:22.210Z,19.46999931
2022-10-28T02:50:27.444Z,19.47999954
2022-10-28T02:51:26.182Z,19.45999908
2022-10-28T02:52:29.212Z,19.46999931
2022-10-28T02:54:26.549Z,19.45999908
2022-10-28T02:56:33.473Z,19.60000038
2022-10-28T02:57:27.518Z,19.67000008
2022-10-28T02:58:32.335Z,19.70000076
2022-10-28T02:59:25.810Z,19.70999908
2022-10-28T03:00:27.567Z,19.70999908
2022-10-28T03:01:22.106Z,19.69000053
2022-10-28T03:02:20.585Z,19.65999985
2022-10-28T03:03:22.467Z,19.62000084
2022-10-28T03:04:17.917Z,19.61000061
2022-10-28T03:05:20.695Z,19.59000015
2022-10-28T03:06:15.600Z,19.57999992
2022-10-28T03:07:19.158Z,19.55999947
2022-10-28T03:08:13.413Z,19.56999969
2022-10-28T03:09:13.588Z,19.57999992
2022-10-28T03:10:11.588Z,19.56999969
2022-10-28T03:11:11.809Z,19.55999947
2022-10-28T03:12:07.254Z,19.53000069
2022-10-28T03:13:08.877Z,19.51000023
2022-10-28T03:14:14.618Z,19.48999977
2022-10-28T03:15:07.971Z,19.46999931
2022-10-28T03:16:06.092Z,19.48999977
2022-10-28T03:17:08.010Z,19.5
2022-10-28T03:18:01.031Z,19.48999977
2022-10-28T03:19:00.958Z,19.48999977
2022-10-28T03:19:57.659Z,19.45999908
2022-10-28T03:21:59.668Z,19.40999985
2022-10-28T03:23:01.770Z,19.39999962
2022-10-28T03:23:59.815Z,19.37000084
2022-10-28T03:25:00.728Z,19.36000061
2022-10-28T03:27:00.795Z,19.35000038
2022-10-28T03:27:56.064Z,19.32999992
2022-10-28T03:28:57.688Z,19.29999924
2022-10-28T03:30:42.386Z,19.37000084
2022-10-28T03:31:22.621Z,19.45000076
2022-10-28T03:32:19.508Z,19.46999931
2022-10-28T03:33:22.131Z,19.45000076
2022-10-28T03:34:16.685Z,19.43000031
2022-10-28T03:35:16.009Z,19.40999985
2022-10-28T03:36:11.606Z,19.38999939
2022-10-28T03:37:11.165Z,19.35000038
2022-10-28T03:38:07.395Z,19.34000015
2022-10-28T03:39:06.258Z,19.30999947
2022-10-28T03:40:01.165Z,19.29999924
2022-10-28T03:41:01.333Z,19.29000092
2022-10-28T03:41:57.540Z,19.27000046
2022-10-28T03:42:58.658Z,19.27000046
2022-10-28T03:43:59.889Z,19.25
2022-10-28T03:44:56.711Z,19.23999977
2022-10-28T03:45:56.510Z,19.21999931
2022-10-28T03:46:53.033Z,19.20999908
2022-10-28T03:47:54.687Z,19.20999908
2022-10-28T03:48:49.259Z,19.20000076
2022-10-28T03:49:48.247Z,19.20000076
2022-10-28T03:50:44.716Z,19.20000076
2022-10-28T03:51:47.844Z,19.19000053
2022-10-28T03:52:43.169Z,19.18000031
2022-10-28T03:53:46.819Z,19.18000031
2022-10-28T03:54:44.086Z,19.20000076
2022-10-28T03:55:44.657Z,19.20999908
2022-10-28T03:56:40.334Z,19.20000076
2022-10-28T03:57:42.181Z,19.20000076
2022-10-28T03:58:37.283Z,19.20000076
2022-10-28T03:58:41.208Z,19.20000076
2022-10-28T03:59:37.805Z,19.21999931
2022-10-28T04:01:35.615Z,19.29000092
2022-10-28T04:02:28.395Z,19.32999992
2022-10-28T04:03:31.339Z,19.37000084
2022-10-28T04:04:33.023Z,19.39999962
2022-10-28T04:05:28.352Z,19.38999939
2022-10-28T04:06:27.629Z,19.35000038
2022-10-28T04:07:22.927Z,19.32999992
2022-10-28T04:08:23.484Z,19.30999947
2022-10-28T04:09:19.575Z,19.29000092
2022-10-28T04:10:18.861Z,19.27000046
2022-10-28T04:12:15.841Z,19.22999954
2022-10-28T04:13:17.422Z,19.20000076
2022-10-28T04:14:16.302Z,19.19000053
2022-10-28T04:15:18.968Z,19.19000053
2022-10-28T04:16:11.863Z,19.18000031
2022-10-28T04:17:17.375Z,19.17000008
2022-10-28T04:18:16.558Z,19.15999985
2022-10-28T04:19:19.799Z,19.12999916
2022-10-28T04:20:15.139Z,19.11000061
2022-10-28T04:22:03.645Z,19.18000031
2022-10-28T04:22:46.281Z,19.19000053
2022-10-28T04:23:54.083Z,19.20999908
2022-10-28T04:24:52.062Z,19.20000076
2022-10-28T04:25:51.043Z,19.19000053
2022-10-28T04:26:49.074Z,19.18000031
2022-10-28T04:27:49.378Z,19.13999939
2022-10-28T04:28:44.663Z,19.10000038
2022-10-28T04:29:45.199Z,19.10000038
2022-10-28T04:31:45.533Z,19.07999992
2022-10-28T04:32:39.967Z,19.06999969
2022-10-28T04:33:36.274Z,19.09000015
2022-10-28T04:34:34.727Z,19.10000038
2022-10-28T04:35:37.435Z,19.07999992
2022-10-28T04:36:29.496Z,19.07999992
2022-10-28T04:37:30.325Z,19.07999992
2022-10-28T04:38:30.326Z,19.07999992
2022-10-28T04:39:29.381Z,19.03000069
2022-10-28T04:40:25.508Z,19.03000069
2022-10-28T04:41:22.278Z,19.03000069
2022-10-28T04:42:22.683Z,19.02000046
2022-10-28T04:43:18.821Z,19.02000046
2022-10-28T04:44:17.117Z,19
2022-10-28T04:45:16.360Z,18.98999977
2022-10-28T04:46:11.232Z,19.01000023
2022-10-28T04:47:10.251Z,18.98999977
2022-10-28T04:48:06.578Z,18.98999977
2022-10-28T04:49:10.146Z,18.97999954
2022-10-28T04:50:11.935Z,18.97999954
2022-10-28T04:51:09.817Z,19
2022-10-28T04:52:09.785Z,19
2022-10-28T04:53:09.620Z,19
2022-10-28T04:54:06.157Z,19
2022-10-28T04:55:12.894Z,19
2022-10-28T04:56:09.299Z,19.03000069
2022-10-28T04:57:06.376Z,19.02000046
2022-10-28T04:58:10.867Z,19.03000069
2022-10-28T04:59:57.633Z,19.11000061
2022-10-28T05:00:37.533Z,19.15999985
2022-10-28T05:01:37.101Z,19.19000053
2022-10-28T05:02:37.172Z,19.17000008
2022-10-28T05:03:33.956Z,19.17000008
2022-10-28T05:04:35.263Z,19.14999962
2022-10-28T05:05:33.300Z,19.12000084
2022-10-28T05:06:34.689Z,19.10000038
2022-10-28T05:07:30.145Z,19.09000015
2022-10-28T05:08:31.434Z,19.05999947
2022-10-28T05:09:30.654Z,19.04000092
2022-10-28T05:11:26.677Z,19.03000069
2022-10-28T05:12:26.346Z,19.03000069
2022-10-28T05:13:21.585Z,19.03000069
2022-10-28T05:14:24.435Z,19.02000046
2022-10-28T05:15:19.646Z,19.01000023
2022-10-28T05:16:18.653Z,19.02000046
2022-10-28T05:17:17.527Z,19.02000046
2022-10-28T05:18:12.002Z,19.02000046
2022-10-28T05:19:13.039Z,19.01000023
2022-10-28T05:20:08.122Z,19.01000023
2022-10-28T05:21:12.845Z,19.01000023
2022-10-28T05:22:04.599Z,19.01000023
2022-10-28T05:23:05.851Z,19
2022-10-28T05:24:04.993Z,19.01000023
2022-10-28T05:25:07.027Z,19
2022-10-28T05:26:08.442Z,18.98999977
2022-10-28T05:27:12.315Z,18.98999977
2022-10-28T05:28:14.112Z,18.97999954
2022-10-28T05:29:14.144Z,18.98999977
2022-10-28T05:30:18.329Z,18.98999977
2022-10-28T05:31:12.786Z,18.98999977
2022-10-28T05:32:12.403Z,18.94000053
2022-10-28T05:33:11.175Z,18.93000031
2022-10-28T05:34:07.666Z,18.94000053
2022-10-28T05:35:52.486Z,18.93000031
2022-10-28T05:36:13.857Z,18.98999977
2022-10-28T05:37:15.255Z,19.10000038
2022-10-28T05:38:14.394Z,19.12000084
2022-10-28T05:39:16.767Z,19.10000038
2022-10-28T05:40:15.806Z,19.09000015
2022-10-28T05:41:13.954Z,19.07999992
2022-10-28T05:42:15.662Z,19.05999947
2022-10-28T05:43:11.135Z,19.07999992
2022-10-28T05:44:16.490Z,19.06999969
2022-10-28T05:45:11.904Z,19.04000092
2022-10-28T05:47:10.080Z,18.98999977
2022-10-28T05:48:09.277Z,18.98999977
2022-10-28T05:49:11.195Z,18.98999977
2022-10-28T05:50:20.163Z,18.95000076
2022-10-28T05:51:13.184Z,18.95999908
2022-10-28T05:52:16.633Z,18.93000031
2022-10-28T05:53:16.641Z,18.92000008
2022-10-28T05:54:13.168Z,18.90999985
2022-10-28T05:55:13.373Z,18.90999985
2022-10-28T05:56:11.527Z,18.92000008
2022-10-28T05:57:12.594Z,18.90999985
2022-10-28T05:58:18.426Z,18.89999962
2022-10-28T05:59:17.346Z,18.88999939
2022-10-28T06:00:17.651Z,18.88999939
2022-10-28T06:01:17.062Z,18.86000061
2022-10-28T06:02:16.979Z,18.86000061
2022-10-28T06:03:17.250Z,18.85000038
2022-10-28T06:04:12.732Z,18.85000038
2022-10-28T06:05:13.421Z,18.86000061
2022-10-28T06:06:11.708Z,18.86000061
2022-10-28T06:07:17.246Z,18.87999916
2022-10-28T06:08:09.866Z,18.88999939
2022-10-28T06:09:19.549Z,18.89999962
2022-10-28T06:10:18.365Z,18.88999939
2022-10-28T06:11:19.902Z,18.87999916
2022-10-28T06:12:16.230Z,18.86000061
2022-10-28T06:13:21.372Z,18.87000084
2022-10-28T06:14:14.619Z,18.87999916
2022-10-28T06:15:16.924Z,18.85000038
2022-10-28T06:17:23.156Z,18.87000084
2022-10-28T06:19:03.411Z,18.86000061
2022-10-28T06:19:32.808Z,18.93000031
2022-10-28T06:21:31.266Z,19.04000092
2022-10-28T06:22:26.221Z,19.03000069
2022-10-28T06:23:27.762Z,19.02000046
2022-10-28T06:24:25.776Z,19
2022-10-28T06:25:24.551Z,19
2022-10-28T06:27:22.711Z,18.95999908
2022-10-28T06:28:19.997Z,18.94000053
2022-10-28T06:29:24.794Z,18.92000008
2022-10-28T06:30:20.900Z,18.93000031
2022-10-28T06:32:18.139Z,18.92000008
2022-10-28T06:33:20.667Z,18.92000008
2022-10-28T06:34:15.908Z,18.92000008
2022-10-28T06:35:20.028Z,18.93000031
2022-10-28T06:36:12.799Z,18.95000076
2022-10-28T06:37:16.139Z,18.94000053
2022-10-28T06:38:09.734Z,18.94000053
2022-10-28T06:39:09.352Z,18.94000053
2022-10-28T06:40:07.394Z,18.95000076
2022-10-28T06:41:11.954Z,18.95000076
2022-10-28T06:42:12.033Z,18.93000031
2022-10-28T06:43:13.939Z,18.90999985
2022-10-28T06:44:09.397Z,18.93000031
2022-10-28T06:45:13.914Z,18.93000031
2022-10-28T06:47:09.102Z,18.98999977
2022-10-28T06:48:05.763Z,18.98999977
2022-10-28T06:49:07.031Z,18.98999977
2022-10-28T06:50:02.758Z,19.04000092
2022-10-28T06:51:10.003Z,19.04000092
2022-10-28T06:52:05.233Z,19.02000046
2022-10-28T06:53:04.980Z,19
2022-10-28T06:54:00.548Z,19.01000023
2022-10-28T06:55:00.940Z,19
2022-10-28T06:55:58.923Z,19
2022-10-28T06:57:00.498Z,19
2022-10-28T06:57:56.257Z,18.98999977
2022-10-28T06:58:57.359Z,18.96999931
2022-10-28T06:59:53.725Z,18.97999954
2022-10-28T07:00:57.010Z,18.97999954
2022-10-28T07:01:54.774Z,18.97999954
2022-10-28T07:02:58.196Z,18.98999977
2022-10-28T07:03:53.504Z,18.98999977
2022-10-28T07:05:01.967Z,19
2022-10-28T07:05:57.377Z,19
2022-10-28T07:06:59.577Z,19
2022-10-28T07:07:53.065Z,19
2022-10-28T07:08:55.862Z,19
2022-10-28T07:09:48.549Z,18.98999977
2022-10-28T07:10:48.205Z,19.01000023
2022-10-28T07:11:43.893Z,19
2022-10-28T07:12:46.060Z,19
2022-10-28T07:13:49.131Z,18.98999977
2022-10-28T07:15:22.186Z,19.13999939
2022-10-28T07:17:51.550Z,19.67000008
2022-10-28T07:18:29.598Z,19.70999908
2022-10-28T07:19:29.681Z,19.71999931
2022-10-28T07:20:23.093Z,19.64999962
2022-10-28T07:21:22.047Z,19.54000092
2022-10-28T07:22:21.453Z,19.48999977
2022-10-28T07:22:25.740Z,19.48999977
2022-10-28T07:23:18.605Z,19.45000076
2022-10-28T07:24:18.927Z,19.42000008
2022-10-28T07:25:19.363Z,19.35000038
2022-10-28T07:26:13.264Z,19.30999947
2022-10-28T07:27:15.261Z,19.29000092
2022-10-28T07:28:08.713Z,19.26000023
2022-10-28T07:29:08.136Z,19.23999977
2022-10-28T07:30:03.394Z,19.21999931
2022-10-28T07:32:04.995Z,19.19000053
2022-10-28T07:33:03.195Z,19.19000053
2022-10-28T07:33:57.343Z,19.19000053
2022-10-28T07:34:54.030Z,19.17000008
2022-10-28T07:36:50.514Z,19.14999962
2022-10-28T07:37:52.101Z,19.15999985
2022-10-28T07:38:44.754Z,19.15999985
2022-10-28T07:39:43.306Z,19.17000008
2022-10-28T07:40:42.410Z,19.15999985
2022-10-28T07:41:34.143Z,19.17000008
2022-10-28T07:42:32.167Z,19.19000053
2022-10-28T07:43:26.440Z,19.19000053
2022-10-28T07:44:23.867Z,19.19000053
2022-10-28T07:45:18.047Z,19.18000031
2022-10-28T07:46:18.840Z,19.20000076
2022-10-28T07:47:11.275Z,19.20000076
2022-10-28T07:48:11.952Z,19.20999908
2022-10-28T07:49:06.847Z,19.20000076
2022-10-28T07:50:05.038Z,19.20999908
2022-10-28T07:50:59.373Z,19.21999931
2022-10-28T07:51:55.541Z,19.20999908
2022-10-28T07:52:57.009Z,19.20999908
2022-10-28T07:53:50.765Z,19.20999908
2022-10-28T07:54:52.359Z,19.20999908
2022-10-28T07:56:45.350Z,19.23999977
2022-10-28T07:57:36.980Z,19.22999954
2022-10-28T07:58:38.453Z,19.23999977
2022-10-28T07:59:29.502Z,19.25
2022-10-28T08:00:25.669Z,19.23999977
2022-10-28T08:02:19.709Z,19.23999977
2022-10-28T08:03:57.249Z,19.42000008
2022-10-28T08:05:19.928Z,19.67000008
2022-10-28T08:06:00.251Z,19.77000046
2022-10-28T08:07:03.218Z,19.79000092
2022-10-28T08:08:01.477Z,19.75
2022-10-28T08:08:55.763Z,19.70000076
2022-10-28T08:09:54.939Z,19.63999939
2022-10-28T08:11:46.332Z,19.60000038
2022-10-28T08:12:44.865Z,19.60000038
2022-10-28T08:13:40.534Z,19.56999969
2022-10-28T08:14:40.386Z,19.54000092
2022-10-28T08:15:34.630Z,19.52000046
2022-10-28T08:17:28.104Z,19.54000092
2022-10-28T08:18:28.113Z,19.51000023
2022-10-28T08:19:22.878Z,19.51000023
2022-10-28T08:20:24.316Z,19.48999977
2022-10-28T08:21:17.806Z,19.47999954
2022-10-28T08:22:16.892Z,19.46999931
2022-10-28T08:23:11.055Z,19.45999908
2022-10-28T08:24:10.686Z,19.44000053
2022-10-28T08:25:10.047Z,19.44000053
2022-10-28T08:26:11.668Z,19.43000031
2022-10-28T08:27:03.787Z,19.43000031
2022-10-28T08:28:03.324Z,19.40999985
2022-10-28T08:29:00.862Z,19.45000076
2022-10-28T08:29:59.238Z,19.47999954
2022-10-28T08:31:08.203Z,19.48999977
2022-10-28T08:31:08.248Z,19.48999977
2022-10-28T08:31:08.674Z,19.48999977
2022-10-28T08:31:53.349Z,19.53000069
2022-10-28T08:32:50.442Z,19.59000015
2022-10-28T08:33:47.149Z,19.59000015
2022-10-28T08:34:45.370Z,19.57999992
2022-10-28T08:35:42.495Z,19.54999924
2022-10-28T08:36:41.041Z,19.54000092
2022-10-28T08:37:34.884Z,19.52000046
2022-10-28T08:38:34.507Z,19.51000023
2022-10-28T08:39:28.040Z,19.52000046
2022-10-28T08:40:27.160Z,19.5
2022-10-28T08:41:24.502Z,19.51000023
2022-10-28T08:42:22.556Z,19.48999977
2022-10-28T08:43:20.721Z,19.48999977
2022-10-28T08:43:34.984Z,19.48999977
2022-10-28T08:43:40.322Z,19.48999977
2022-10-28T08:44:17.996Z,19.51000023
2022-10-28T08:45:15.450Z,19.55999947
2022-10-28T08:46:13.017Z,19.61000061
2022-10-28T08:47:07.150Z,19.62000084
2022-10-28T08:48:10.040Z,19.62000084
2022-10-28T08:49:01.809Z,19.62000084
2022-10-28T08:50:02.883Z,19.62000084
2022-10-28T08:50:55.261Z,19.63999939
2022-10-28T08:51:56.584Z,19.63999939
2022-10-28T08:52:50.186Z,19.64999962
2022-10-28T08:53:51.249Z,19.65999985
2022-10-28T08:54:43.008Z,19.65999985
2022-10-28T08:55:39.196Z,19.65999985
2022-10-28T08:58:42.913Z,19.80999947
2022-10-28T08:59:22.926Z,19.89999962
2022-10-28T09:00:23.459Z,19.94000053
2022-10-28T09:01:19.060Z,19.93000031
2022-10-28T09:02:18.270Z,19.92000008
2022-10-28T09:03:12.583Z,19.88999939
2022-10-28T09:04:12.146Z,19.87999916
2022-10-28T09:05:06.545Z,19.87999916
2022-10-28T09:06:09.503Z,19.87000084
2022-10-28T09:07:02.944Z,19.85000038
2022-10-28T09:08:02.933Z,19.86000061
2022-10-28T09:08:59.475Z,19.86000061
2022-10-28T09:09:59.170Z,19.86000061
2022-10-28T09:10:53.187Z,19.85000038
2022-10-28T09:11:55.173Z,19.86000061
2022-10-28T09:12:49.946Z,19.86000061
2022-10-28T09:13:50.441Z,19.86000061
2022-10-28T09:14:46.083Z,19.87000084
2022-10-28T09:15:48.119Z,19.87000084
2022-10-28T09:17:41.876Z,19.92000008
2022-10-28T09:18:33.897Z,19.93000031
2022-10-28T09:19:32.707Z,19.95999908
2022-10-28T09:20:28.292Z,19.96999931
2022-10-28T09:21:27.237Z,20
2022-10-28T09:22:23.085Z,20.03000069
2022-10-28T09:23:25.464Z,20.03000069
2022-10-28T09:24:17.755Z,20.06999969
2022-10-28T09:25:16.396Z,20.10000038
2022-10-28T09:27:12.961Z,20.14999962
2022-10-28T09:28:06.210Z,20.17000008
2022-10-28T09:30:00.529Z,20.22999954
2022-10-28T09:31:05.507Z,20.28000069
2022-10-28T09:31:58.775Z,20.30999947
2022-10-28T09:32:33.302Z,20.31999969
2022-10-28T09:33:26.632Z,20.35000038
2022-10-28T09:34:28.376Z,20.37999916
2022-10-28T09:35:23.566Z,20.38999939
2022-10-28T09:36:23.985Z,20.39999962
2022-10-28T09:37:22.177Z,20.39999962
2022-10-28T09:38:20.625Z,20.43000031
2022-10-28T09:39:25.335Z,20.40999985
2022-10-28T09:39:27.774Z,20.40999985
2022-10-28T09:43:31.971Z,20.82999992
2022-10-28T09:44:04.162Z,20.90999985
2022-10-28T09:45:04.092Z,20.95999908
2022-10-28T09:46:57.851Z,20.95000076
2022-10-28T09:47:59.122Z,20.90999985
2022-10-28T09:48:53.594Z,20.88999939
2022-10-28T09:49:53.021Z,20.88999939
2022-10-28T09:50:47.790Z,20.87000084
2022-10-28T09:52:43.585Z,20.87000084
2022-10-28T09:53:42.069Z,20.85000038
2022-10-28T09:54:37.325Z,20.87000084
2022-10-28T09:55:36.946Z,20.88999939
2022-10-28T09:57:32.916Z,20.94000053
2022-10-28T09:58:27.411Z,20.93000031
2022-10-28T09:59:29.756Z,20.93000031
2022-10-28T10:00:21.736Z,20.94000053
2022-10-28T10:02:18.117Z,20.95999908
2022-10-28T10:03:12.718Z,20.96999931
2022-10-28T10:04:14.490Z,20.96999931
2022-10-28T10:05:14.611Z,20.98999977
2022-10-28T10:05:17.003Z,20.98999977
2022-10-28T10:06:12.901Z,21
2022-10-28T10:07:08.252Z,21.04000092
2022-10-28T10:08:07.303Z,21.02000046
2022-10-28T10:09:01.745Z,21.02000046
2022-10-28T10:10:05.420Z,21.03000069
2022-10-28T10:10:58.030Z,21.05999947
2022-10-28T10:12:00.722Z,21.07999992
2022-10-28T10:12:56.124Z,21.09000015
2022-10-28T10:13:54.986Z,21.09000015
2022-10-28T10:14:54.112Z,21.11000061
2022-10-28T10:15:52.607Z,21.14999962
2022-10-28T10:17:50.741Z,21.23999977
2022-10-28T10:18:46.929Z,21.25
2022-10-28T10:19:50.564Z,21.25
2022-10-28T10:22:26.875Z,21.48999977
2022-10-28T10:23:20.467Z,21.55999947
2022-10-28T10:24:21.015Z,21.57999992
2022-10-28T10:25:17.178Z,21.55999947
2022-10-28T11:05:35.745Z,24.84000015
2022-10-28T11:05:38.203Z,24.84000015
2022-10-28T14:55:19.520Z,25.62000084
2022-10-28T15:29:05.127Z,24.88999939
2022-10-28T15:29:24.907Z,24.69000053
2022-10-28T15:30:25.018Z,24.5
2022-10-28T15:31:29.415Z,24.20999908
2022-10-28T15:32:23.931Z,24.04999924
2022-10-28T15:33:25.393Z,23.87999916
2022-10-28T15:34:19.704Z,23.63999939
2022-10-28T15:35:28.216Z,23.44000053
2022-10-28T15:38:13.546Z,23.12000084
2022-10-28T15:38:30.048Z,23.03000069
2022-10-28T15:39:29.202Z,23.04999924
2022-10-28T18:37:03.294Z,23.34000015
2022-10-28T18:37:41.858Z,23.30999947
2022-10-28T18:38:38.574Z,23.15999985
2022-10-28T18:39:36.089Z,22.89999962
2022-10-28T18:40:28.700Z,22.60000038
2022-10-28T18:41:31.762Z,22.29000092
2022-10-28T18:43:21.052Z,21.86000061
2022-10-28T18:44:15.510Z,21.69000053
2022-10-28T18:45:22.262Z,21.51000023
2022-10-28T18:46:15.651Z,21.35000038
2022-10-28T18:47:14.607Z,21.20000076
2022-10-28T18:48:10.846Z,21.07999992
2022-10-28T18:49:07.034Z,20.98999977
2022-10-28T18:50:00.419Z,20.88999939
2022-10-28T18:51:01.336Z,20.79999924
2022-10-28T18:51:51.838Z,20.72999954
2022-10-28T18:52:48.213Z,20.65999985
2022-10-28T18:53:43.348Z,20.60000038
2022-10-28T18:54:38.673Z,20.53000069
2022-10-28T18:55:30.580Z,20.47999954
2022-10-28T18:56:28.713Z,20.43000031
2022-10-28T18:58:25.780Z,20.30999947
2022-10-28T18:59:14.627Z,20.28000069
2022-10-28T19:00:18.004Z,20.22999954
2022-10-28T19:00:19.559Z,20.22999954
2022-10-28T19:01:05.428Z,20.19000053
2022-10-28T19:03:03.972Z,20.19000053
2022-10-28T19:03:53.315Z,20.15999985
2022-10-28T19:04:49.856Z,20.13999939
2022-10-28T19:05:41.342Z,20.07999992
2022-10-28T19:06:41.562Z,20.04000092
2022-10-28T19:07:36.629Z,20.01000023
2022-10-28T19:08:40.539Z,19.95999908
2022-10-28T19:09:33.280Z,19.92000008
2022-10-28T19:10:27.470Z,19.87999916
2022-10-28T19:11:23.888Z,19.85000038
2022-10-28T19:12:16.869Z,19.81999969
2022-10-28T19:13:16.961Z,19.78000069
2022-10-28T19:14:09.076Z,19.76000023
2022-10-28T19:15:04.705Z,19.73999977
2022-10-28T19:16:02.918Z,19.70999908
2022-10-28T19:18:04.240Z,19.73999977
2022-10-28T19:18:27.525Z,19.79000092
2022-10-28T19:19:30.945Z,19.85000038
2022-10-28T19:20:31.977Z,19.87000084
2022-10-28T19:21:28.577Z,19.84000015
2022-10-28T19:23:30.646Z,19.75